createdAt,value
2019-06-01T00:00:31.536Z,4.00
2019-06-01T00:01:31.633Z,4.00
2019-06-01T00:02:31.726Z,4.00
2019-06-01T00:03:31.821Z,4.00
2019-06-01T00:04:31.920Z,4.00
2019-06-01T00:05:32.035Z,4.00
2019-06-01T00:06:32.132Z,4.00
2019-06-01T00:07:32.225Z,4.00
2019-06-01T00:08:32.320Z,4.00
2019-06-01T00:09:32.414Z,4.00
2019-06-01T00:10:32.503Z,4.00
2019-06-01T00:11:32.596Z,4.00
2019-06-01T00:12:32.685Z,4.00
2019-06-01T00:13:32.785Z,4.00
2019-06-01T00:14:32.879Z,4.00
2019-06-01T00:15:32.974Z,4.00
2019-06-01T00:16:33.068Z,0.00
2019-06-01T00:17:33.170Z,4.00
2019-06-01T00:18:33.261Z,4.00
2019-06-01T00:19:33.356Z,4.00
2019-06-01T00:20:33.452Z,4.00
2019-06-01T00:21:33.548Z,4.00
2019-06-01T00:22:33.639Z,4.00
2019-06-01T00:23:33.740Z,4.00
2019-06-01T00:24:33.832Z,4.00
2019-06-01T00:25:33.926Z,4.00
2019-06-01T00:26:34.028Z,4.00
2019-06-01T00:27:34.115Z,4.00
2019-06-01T00:28:34.212Z,4.00
2019-06-01T00:29:34.305Z,4.00
2019-06-01T00:30:34.398Z,4.00
2019-06-01T00:31:34.492Z,4.00
2019-06-01T00:32:34.586Z,4.00
2019-06-01T00:33:34.682Z,4.00
2019-06-01T00:34:34.775Z,4.00
2019-06-01T00:35:34.870Z,4.00
2019-06-01T00:36:34.963Z,4.00
2019-06-01T00:37:35.059Z,4.00
2019-06-01T00:38:35.158Z,4.00
2019-06-01T00:39:35.245Z,4.00
2019-06-01T00:40:35.338Z,4.00
2019-06-01T00:41:35.434Z,4.00
2019-06-01T00:42:35.534Z,4.00
2019-06-01T00:43:35.619Z,4.00
2019-06-01T00:44:35.714Z,4.00
2019-06-01T00:45:35.812Z,4.00
2019-06-01T00:46:35.900Z,4.00
2019-06-01T00:47:35.999Z,4.00
2019-06-01T00:48:36.100Z,4.00
2019-06-01T00:49:36.191Z,4.00
2019-06-01T00:50:36.286Z,4.00
2019-06-01T00:51:36.378Z,4.00
2019-06-01T00:52:36.474Z,4.00
2019-06-01T00:53:36.570Z,4.00
2019-06-01T00:54:36.665Z,4.00
2019-06-01T00:55:36.760Z,4.00
2019-06-01T00:56:36.853Z,4.00
2019-06-01T00:57:36.950Z,4.00
2019-06-01T00:58:37.051Z,4.00
2019-06-01T00:59:37.134Z,4.00
2019-06-01T01:00:43.654Z,4.00
2019-06-01T01:01:37.329Z,4.00
2019-06-01T01:02:37.421Z,4.00
2019-06-01T01:03:37.514Z,4.00
2019-06-01T01:04:37.589Z,4.00
2019-06-01T01:05:37.701Z,4.00
2019-06-01T01:06:37.797Z,4.00
2019-06-01T01:07:38.338Z,4.00
2019-06-01T01:08:37.990Z,4.00
2019-06-01T01:09:38.081Z,4.00
2019-06-01T01:10:38.174Z,4.00
2019-06-01T01:11:38.270Z,4.00
2019-06-01T01:12:38.389Z,4.00
2019-06-01T01:13:38.453Z,4.00
2019-06-01T01:14:38.548Z,4.00
2019-06-01T01:15:38.642Z,4.00
2019-06-01T01:16:38.735Z,4.00
2019-06-01T01:17:38.831Z,4.00
2019-06-01T01:18:38.925Z,4.00
2019-06-01T01:19:39.022Z,4.00
2019-06-01T01:20:39.114Z,4.00
2019-06-01T01:21:39.215Z,4.00
2019-06-01T01:22:39.300Z,4.00
2019-06-01T01:23:39.397Z,4.00
2019-06-01T01:24:39.483Z,4.00
2019-06-01T01:25:39.576Z,4.00
2019-06-01T01:26:39.683Z,4.00
2019-06-01T01:27:39.765Z,4.00
2019-06-01T01:28:39.853Z,4.00
2019-06-01T01:29:39.947Z,4.00
2019-06-01T01:30:40.034Z,4.00
2019-06-01T01:31:40.135Z,4.00
2019-06-01T01:32:40.229Z,4.00
2019-06-01T01:33:40.325Z,4.00
2019-06-01T01:34:40.418Z,4.00
2019-06-01T01:35:40.512Z,4.00
2019-06-01T01:36:40.611Z,4.00
2019-06-01T01:37:40.705Z,4.00
2019-06-01T01:38:40.797Z,4.00
2019-06-01T01:39:40.894Z,4.00
2019-06-01T01:40:40.988Z,4.00
2019-06-01T01:41:41.081Z,4.00
2019-06-01T01:42:41.174Z,4.00
2019-06-01T01:43:41.272Z,4.00
2019-06-01T01:44:41.361Z,4.00
2019-06-01T01:45:41.456Z,4.00
2019-06-01T01:46:41.548Z,4.00
2019-06-01T01:47:41.642Z,4.00
2019-06-01T01:48:41.738Z,4.00
2019-06-01T01:49:41.830Z,4.00
2019-06-01T01:50:41.924Z,4.00
2019-06-01T01:51:42.016Z,4.00
2019-06-01T01:52:42.112Z,4.00
2019-06-01T01:53:42.259Z,4.00
2019-06-01T01:54:42.298Z,4.00
2019-06-01T01:55:42.392Z,4.00
2019-06-01T01:56:42.486Z,4.00
2019-06-01T01:57:42.580Z,4.00
2019-06-01T01:58:42.677Z,4.00
2019-06-01T01:59:42.774Z,4.00
2019-06-01T02:00:42.867Z,4.00
2019-06-01T02:01:42.959Z,4.00
2019-06-01T02:02:43.055Z,4.00
2019-06-01T02:03:43.154Z,4.00
2019-06-01T02:04:43.247Z,4.00
2019-06-01T02:05:43.340Z,4.00
2019-06-01T02:06:43.438Z,4.00
2019-06-01T02:07:43.533Z,4.00
2019-06-01T02:08:43.619Z,4.00
2019-06-01T02:09:43.706Z,4.00
2019-06-01T02:10:43.804Z,4.00
2019-06-01T02:11:43.898Z,4.00
2019-06-01T02:12:43.991Z,4.00
2019-06-01T02:13:44.086Z,4.00
2019-06-01T02:14:44.189Z,4.00
2019-06-01T02:15:44.280Z,4.00
2019-06-01T02:16:44.347Z,4.00
2019-06-01T02:17:44.442Z,4.00
2019-06-01T02:18:44.534Z,4.00
2019-06-01T02:19:44.629Z,4.00
2019-06-01T02:20:44.723Z,4.00
2019-06-01T02:21:44.816Z,4.00
2019-06-01T02:22:44.906Z,4.00
2019-06-01T02:23:44.999Z,4.00
2019-06-01T02:24:45.092Z,4.00
2019-06-01T02:25:45.182Z,4.00
2019-06-01T02:26:45.278Z,4.00
2019-06-01T02:27:45.375Z,4.00
2019-06-01T02:28:45.463Z,4.00
2019-06-01T02:29:45.555Z,8.00
2019-06-01T02:30:45.650Z,4.00
2019-06-01T02:31:45.746Z,4.00
2019-06-01T02:32:45.834Z,4.00
2019-06-01T02:33:45.929Z,4.00
2019-06-01T02:34:46.026Z,4.00
2019-06-01T02:35:46.120Z,4.00
2019-06-01T02:36:46.207Z,8.00
2019-06-01T02:37:46.306Z,8.00
2019-06-01T02:38:46.393Z,4.00
2019-06-01T02:39:46.484Z,4.00
2019-06-01T02:40:46.581Z,8.00
2019-06-01T02:41:46.675Z,8.00
2019-06-01T02:42:46.766Z,8.00
2019-06-01T02:43:46.864Z,8.00
2019-06-01T02:44:46.951Z,8.00
2019-06-01T02:45:47.046Z,12.00
2019-06-01T02:46:47.139Z,8.00
2019-06-01T02:47:47.234Z,12.00
2019-06-01T02:48:47.328Z,12.00
2019-06-01T02:49:47.421Z,16.00
2019-06-01T02:50:47.525Z,16.00
2019-06-01T02:51:47.600Z,16.00
2019-06-01T02:52:47.695Z,24.00
2019-06-01T02:53:47.783Z,24.00
2019-06-01T02:54:47.872Z,24.00
2019-06-01T02:55:47.963Z,28.00
2019-06-01T02:56:48.055Z,28.00
2019-06-01T02:57:48.146Z,36.00
2019-06-01T02:58:48.245Z,36.00
2019-06-01T02:59:48.336Z,40.00
2019-06-01T03:00:48.431Z,48.00
2019-06-01T03:01:57.036Z,48.00
2019-06-01T03:02:48.619Z,56.00
2019-06-01T03:03:48.718Z,60.00
2019-06-01T03:04:48.809Z,68.00
2019-06-01T03:05:48.909Z,72.00
2019-06-01T03:06:49.000Z,80.00
2019-06-01T03:07:49.091Z,88.00
2019-06-01T03:08:49.181Z,92.00
2019-06-01T03:09:49.274Z,100.00
2019-06-01T03:10:49.368Z,104.00
2019-06-01T03:11:49.461Z,112.00
2019-06-01T03:12:49.552Z,124.00
2019-06-01T03:13:49.647Z,136.00
2019-06-01T03:14:49.739Z,148.00
2019-06-01T03:15:49.833Z,164.00
2019-06-01T03:16:49.927Z,184.00
2019-06-01T03:17:50.020Z,204.00
2019-06-01T03:18:50.117Z,220.00
2019-06-01T03:19:50.211Z,240.00
2019-06-01T03:20:50.297Z,256.00
2019-06-01T03:21:50.392Z,276.00
2019-06-01T03:22:50.486Z,296.00
2019-06-01T03:23:50.599Z,320.00
2019-06-01T03:24:50.669Z,344.00
2019-06-01T03:25:50.761Z,360.00
2019-06-01T03:26:50.856Z,380.00
2019-06-01T03:27:50.949Z,400.00
2019-06-01T03:28:51.043Z,424.00
2019-06-01T03:29:51.142Z,444.00
2019-06-01T03:30:51.229Z,464.00
2019-06-01T03:31:51.324Z,480.00
2019-06-01T03:32:51.430Z,484.00
2019-06-01T03:33:51.526Z,492.00
2019-06-01T03:34:51.615Z,508.00
2019-06-01T03:35:51.705Z,528.00
2019-06-01T03:36:51.801Z,528.00
2019-06-01T03:37:51.906Z,528.00
2019-06-01T03:38:51.986Z,524.00
2019-06-01T03:39:52.079Z,528.00
2019-06-01T03:40:52.173Z,528.00
2019-06-01T03:41:52.267Z,540.00
2019-06-01T03:42:52.357Z,552.00
2019-06-01T03:43:52.452Z,564.00
2019-06-01T03:44:52.546Z,584.00
2019-06-01T03:45:52.696Z,608.00
2019-06-01T03:46:52.789Z,644.00
2019-06-01T03:47:52.874Z,664.00
2019-06-01T03:48:52.969Z,680.00
2019-06-01T03:49:53.059Z,688.00
2019-06-01T03:50:53.155Z,688.00
2019-06-01T03:51:53.249Z,676.00
2019-06-01T03:52:53.343Z,664.00
2019-06-01T03:53:53.438Z,648.00
2019-06-01T03:54:53.531Z,632.00
2019-06-01T03:55:53.622Z,628.00
2019-06-01T03:56:53.715Z,632.00
2019-06-01T03:57:53.808Z,644.00
2019-06-01T03:58:53.903Z,668.00
2019-06-01T03:59:54.008Z,704.00
2019-06-01T04:00:54.090Z,744.00
2019-06-01T04:01:54.203Z,784.00
2019-06-01T04:02:54.272Z,828.00
2019-06-01T04:03:54.366Z,888.00
2019-06-01T04:04:54.464Z,916.00
2019-06-01T04:05:54.544Z,924.00
2019-06-01T04:06:54.647Z,960.00
2019-06-01T04:07:54.740Z,972.00
2019-06-01T04:08:54.839Z,956.00
2019-06-01T04:11:26.419Z,964.00
2019-06-01T04:12:26.512Z,980.00
2019-06-01T04:13:26.605Z,988.00
2019-06-01T04:14:26.696Z,1000.00
2019-06-01T04:15:26.792Z,1064.00
2019-06-01T04:16:26.890Z,1116.00
2019-06-01T04:17:26.972Z,1128.00
2019-06-01T04:18:27.076Z,1112.00
2019-06-01T04:19:27.161Z,1116.00
2019-06-01T04:20:27.254Z,1196.00
2019-06-01T04:21:27.349Z,1244.00
2019-06-01T04:22:27.438Z,1236.00
2019-06-01T04:23:27.533Z,1180.00
2019-06-01T04:24:27.630Z,1188.00
2019-06-01T04:25:27.721Z,1232.00
2019-06-01T04:26:27.814Z,1252.00
2019-06-01T04:27:27.908Z,1252.00
2019-06-01T04:28:28.003Z,1256.00
2019-06-01T04:29:28.096Z,1236.00
2019-06-01T04:30:28.190Z,1224.00
2019-06-01T04:31:28.287Z,1232.00
2019-06-01T04:32:28.378Z,1224.00
2019-06-01T04:33:28.471Z,1204.00
2019-06-01T04:34:28.566Z,1196.00
2019-06-01T04:35:28.662Z,1204.00
2019-06-01T04:36:28.760Z,1236.00
2019-06-01T04:37:28.848Z,1284.00
2019-06-01T04:38:28.944Z,1304.00
2019-06-01T04:39:29.037Z,1300.00
2019-06-01T04:40:29.134Z,1336.00
2019-06-01T04:41:29.226Z,1344.00
2019-06-01T04:42:29.315Z,1288.00
2019-06-01T04:43:29.436Z,1264.00
2019-06-01T04:44:29.492Z,1288.00
2019-06-01T04:45:29.592Z,1284.00
2019-06-01T04:46:29.686Z,1284.00
2019-06-01T04:47:29.781Z,1304.00
2019-06-01T04:48:29.874Z,1328.00
2019-06-01T04:49:29.970Z,1380.00
2019-06-01T04:50:30.067Z,1432.00
2019-06-01T04:51:30.162Z,1476.00
2019-06-01T04:52:30.256Z,1512.00
2019-06-01T04:53:30.350Z,1508.00
2019-06-01T04:54:30.445Z,1480.00
2019-06-01T04:55:30.539Z,1468.00
2019-06-01T04:56:30.635Z,1448.00
2019-06-01T04:57:30.716Z,1448.00
2019-06-01T04:58:30.815Z,1412.00
2019-06-01T04:59:30.908Z,1352.00
2019-06-01T05:00:31.001Z,1356.00
2019-06-01T05:01:31.090Z,1396.00
2019-06-01T05:02:31.181Z,1464.00
2019-06-01T05:03:31.296Z,1504.00
2019-06-01T05:04:31.417Z,1544.00
2019-06-01T05:05:31.485Z,1588.00
2019-06-01T05:06:31.587Z,1624.00
2019-06-01T05:07:31.679Z,1684.00
2019-06-01T05:08:31.768Z,1724.00
2019-06-01T05:09:31.862Z,1756.00
2019-06-01T05:10:31.953Z,1808.00
2019-06-01T05:11:32.042Z,1816.00
2019-06-01T05:12:32.137Z,1828.00
2019-06-01T05:13:32.234Z,1828.00
2019-06-01T05:14:32.328Z,1836.00
2019-06-01T05:15:32.422Z,1880.00
2019-06-01T05:16:32.523Z,1936.00
2019-06-01T05:17:32.616Z,1980.00
2019-06-01T05:18:32.715Z,2060.00
2019-06-01T05:19:32.808Z,2140.00
2019-06-01T05:20:32.908Z,2208.00
2019-06-01T05:21:33.000Z,2272.00
2019-06-01T05:22:33.096Z,2364.00
2019-06-01T05:23:33.189Z,2476.00
2019-06-01T05:24:33.284Z,2600.00
2019-06-01T05:25:33.380Z,2684.00
2019-06-01T05:26:33.478Z,2792.00
2019-06-01T05:27:33.570Z,2828.00
2019-06-01T05:28:33.669Z,2828.00
2019-06-01T05:29:33.775Z,2912.00
2019-06-01T05:30:33.869Z,3064.00
2019-06-01T05:31:33.962Z,3108.00
2019-06-01T05:32:34.062Z,3180.00
2019-06-01T05:33:37.673Z,3184.00
2019-06-01T05:34:35.425Z,3244.00
2019-06-01T05:35:34.326Z,3308.00
2019-06-01T05:36:34.408Z,3440.00
2019-06-01T05:37:34.510Z,3584.00
2019-06-01T05:38:34.606Z,3804.00
2019-06-01T05:39:34.704Z,4056.00
2019-06-01T05:40:34.801Z,4344.00
2019-06-01T05:41:34.889Z,4508.00
2019-06-01T05:42:34.982Z,4604.00
2019-06-01T05:43:35.078Z,4808.00
2019-06-01T05:44:35.171Z,4756.00
2019-06-01T05:45:35.268Z,4592.00
2019-06-01T05:46:35.374Z,4844.00
2019-06-01T05:47:35.464Z,5092.00
2019-06-01T05:48:35.558Z,4792.00
2019-06-01T05:49:35.652Z,5220.00
2019-06-01T05:50:35.750Z,7276.00
2019-06-01T05:51:35.830Z,6628.00
2019-06-01T05:52:35.947Z,6736.00
2019-06-01T05:53:36.042Z,15296.00
2019-06-01T05:54:36.137Z,7884.00
2019-06-01T05:55:36.232Z,41856.00
2019-06-01T05:56:36.326Z,8848.00
2019-06-01T05:57:36.434Z,8896.00
2019-06-01T05:58:36.513Z,8792.00
2019-06-01T05:59:36.612Z,17632.00
2019-06-01T06:00:36.717Z,12992.00
2019-06-01T06:01:36.801Z,6036.00
2019-06-01T06:02:36.902Z,5120.00
2019-06-01T06:03:40.361Z,4992.00
2019-06-01T06:04:37.085Z,4748.00
2019-06-01T06:05:37.189Z,4616.00
2019-06-01T06:06:37.279Z,4520.00
2019-06-01T06:07:37.373Z,4348.00
2019-06-01T06:08:37.466Z,4264.00
2019-06-01T06:09:37.570Z,4336.00
2019-06-01T06:10:37.660Z,4392.00
2019-06-01T06:11:37.752Z,4560.00
2019-06-01T06:12:37.878Z,4772.00
2019-06-01T06:13:37.981Z,4944.00
2019-06-01T06:14:38.060Z,5176.00
2019-06-01T06:15:38.166Z,5560.00
2019-06-01T06:16:38.259Z,5888.00
2019-06-01T06:17:38.350Z,6808.00
2019-06-01T06:18:38.447Z,6692.00
2019-06-01T06:19:38.542Z,6520.00
2019-06-01T06:20:38.649Z,6896.00
2019-06-01T06:21:38.738Z,7068.00
2019-06-01T06:22:41.197Z,6944.00
2019-06-01T06:23:38.948Z,6800.00
2019-06-01T06:24:39.051Z,6936.00
2019-06-01T06:25:41.299Z,7180.00
2019-06-01T06:26:39.241Z,7200.00
2019-06-01T06:27:39.339Z,7172.00
2019-06-01T06:28:39.430Z,7608.00
2019-06-01T06:29:39.533Z,6768.00
2019-06-01T06:30:39.631Z,6436.00
2019-06-01T06:31:39.735Z,6508.00
2019-06-01T06:32:39.832Z,5936.00
2019-06-01T06:33:53.367Z,5704.00
2019-06-01T06:34:40.041Z,5356.00
2019-06-01T06:35:40.141Z,5024.00
2019-06-01T06:36:40.244Z,4860.00
2019-06-01T06:37:42.350Z,4720.00
2019-06-01T06:38:40.441Z,4568.00
2019-06-01T06:39:40.543Z,4400.00
2019-06-01T06:40:40.638Z,4292.00
2019-06-01T06:41:40.738Z,4248.00
2019-06-01T06:42:40.835Z,4228.00
2019-06-01T06:43:40.942Z,4148.00
2019-06-01T06:44:41.029Z,4120.00
2019-06-01T06:45:41.130Z,4128.00
2019-06-01T06:46:42.058Z,4068.00
2019-06-01T06:47:41.284Z,4080.00
2019-06-01T06:48:41.392Z,4120.00
2019-06-01T06:49:41.481Z,4200.00
2019-06-01T06:50:41.579Z,4316.00
2019-06-01T06:51:41.695Z,4512.00
2019-06-01T06:52:41.776Z,4684.00
2019-06-01T06:53:41.863Z,4912.00
2019-06-01T06:54:41.961Z,5140.00
2019-06-01T06:55:42.053Z,5304.00
2019-06-01T06:56:42.159Z,5520.00
2019-06-01T06:57:42.265Z,5864.00
2019-06-01T06:58:42.341Z,6188.00
2019-06-01T06:59:42.445Z,6308.00
2019-06-01T07:00:42.535Z,6232.00
2019-06-01T07:01:42.643Z,6088.00
2019-06-01T07:02:42.730Z,5844.00
2019-06-01T07:03:42.843Z,5648.00
2019-06-01T07:04:42.931Z,5552.00
2019-06-01T07:05:43.032Z,5520.00
2019-06-01T07:06:43.133Z,5612.00
2019-06-01T07:07:43.230Z,5776.00
2019-06-01T07:08:43.323Z,6100.00
2019-06-01T07:09:43.415Z,6272.00
2019-06-01T07:10:43.512Z,6388.00
2019-06-01T07:11:43.614Z,6408.00
2019-06-01T07:12:43.707Z,6356.00
2019-06-01T07:13:43.804Z,6332.00
2019-06-01T07:14:43.913Z,5776.00
2019-06-01T07:15:44.006Z,5740.00
2019-06-01T07:16:44.109Z,5932.00
2019-06-01T07:17:44.188Z,7236.00
2019-06-01T07:18:44.283Z,6288.00
2019-06-01T07:19:44.389Z,6308.00
2019-06-01T07:20:44.484Z,6592.00
2019-06-01T07:21:44.580Z,7136.00
2019-06-01T07:22:44.689Z,7468.00
2019-06-01T07:23:44.798Z,8860.00
2019-06-01T07:24:44.872Z,7772.00
2019-06-01T07:25:44.970Z,9980.00
2019-06-01T07:26:45.078Z,7992.00
2019-06-01T07:27:45.171Z,7676.00
2019-06-01T07:28:45.286Z,8344.00
2019-06-01T07:29:45.405Z,7152.00
2019-06-01T07:30:50.506Z,7324.00
2019-06-01T07:31:45.602Z,6788.00
2019-06-01T07:32:45.698Z,6568.00
2019-06-01T07:33:45.801Z,6180.00
2019-06-01T07:34:45.889Z,6056.00
2019-06-01T07:35:45.988Z,5976.00
2019-06-01T07:36:46.109Z,7560.00
2019-06-01T07:37:46.199Z,6700.00
2019-06-01T07:38:46.297Z,6632.00
2019-06-01T07:39:46.394Z,6472.00
2019-06-01T07:40:46.502Z,6920.00
2019-06-01T07:41:46.605Z,5608.00
2019-06-01T07:42:46.696Z,6764.00
2019-06-01T07:43:46.795Z,6416.00
2019-06-01T07:44:46.894Z,5260.00
2019-06-01T07:45:46.994Z,6548.00
2019-06-01T07:46:47.095Z,5532.00
2019-06-01T07:47:47.196Z,5588.00
2019-06-01T07:48:47.298Z,5628.00
2019-06-01T07:49:47.394Z,6148.00
2019-06-01T07:50:47.496Z,4700.00
2019-06-01T07:51:47.605Z,5596.00
2019-06-01T07:52:47.692Z,5700.00
2019-06-01T07:53:47.793Z,5760.00
2019-06-01T07:54:47.891Z,5668.00
2019-06-01T07:55:47.992Z,5348.00
2019-06-01T07:56:48.093Z,5388.00
2019-06-01T07:57:48.181Z,5396.00
2019-06-01T07:58:48.294Z,5348.00
2019-06-01T07:59:48.386Z,5280.00
2019-06-01T08:00:48.484Z,5304.00
2019-06-01T08:01:48.588Z,5220.00
2019-06-01T08:02:48.683Z,5144.00
2019-06-01T08:03:48.781Z,5332.00
2019-06-01T08:04:54.157Z,5400.00
2019-06-01T08:05:48.983Z,5376.00
2019-06-01T08:06:49.281Z,5476.00
2019-06-01T08:07:49.179Z,4988.00
2019-06-01T08:08:49.278Z,5420.00
2019-06-01T08:09:49.389Z,5312.00
2019-06-01T08:10:49.475Z,5304.00
2019-06-01T08:11:49.576Z,5232.00
2019-06-01T08:12:49.674Z,5016.00
2019-06-01T08:13:49.800Z,4944.00
2019-06-01T08:14:49.873Z,5032.00
2019-06-01T08:15:49.974Z,4688.00
2019-06-01T08:16:50.077Z,4944.00
2019-06-01T08:17:50.175Z,5144.00
2019-06-01T08:18:53.085Z,5132.00
2019-06-01T08:19:52.044Z,5204.00
2019-06-01T08:20:50.477Z,5320.00
2019-06-01T08:21:50.588Z,5156.00
2019-06-01T08:22:50.670Z,5148.00
2019-06-01T08:23:50.772Z,5340.00
2019-06-01T08:24:50.870Z,5372.00
2019-06-01T08:25:50.969Z,5336.00
2019-06-01T08:26:51.068Z,5332.00
2019-06-01T08:27:51.171Z,5256.00
2019-06-01T08:28:51.272Z,5192.00
2019-06-01T08:29:51.368Z,5196.00
2019-06-01T08:30:51.470Z,5280.00
2019-06-01T08:31:55.561Z,5248.00
2019-06-01T08:32:51.667Z,5304.00
2019-06-01T08:33:51.769Z,5324.00
2019-06-01T08:35:07.372Z,5220.00
2019-06-01T08:35:51.970Z,5100.00
2019-06-01T08:36:52.070Z,5084.00
2019-06-01T08:37:52.172Z,5176.00
2019-06-01T08:38:52.284Z,5088.00
2019-06-01T08:39:52.387Z,5112.00
2019-06-01T08:40:52.473Z,5096.00
2019-06-01T08:41:52.574Z,5216.00
2019-06-01T08:42:52.664Z,5180.00
2019-06-01T08:43:52.781Z,5208.00
2019-06-01T08:44:52.864Z,5268.00
2019-06-01T08:45:52.962Z,5200.00
2019-06-01T08:46:53.067Z,5232.00
2019-06-01T08:47:53.166Z,5300.00
2019-06-01T08:48:53.267Z,5152.00
2019-06-01T08:49:53.370Z,5212.00
2019-06-01T08:50:53.475Z,5180.00
2019-06-01T08:51:53.570Z,5192.00
2019-06-01T08:52:53.669Z,5132.00
2019-06-01T08:53:53.767Z,5168.00
2019-06-01T08:54:53.868Z,5152.00
2019-06-01T08:55:53.968Z,4972.00
2019-06-01T08:56:54.068Z,5172.00
2019-06-01T08:57:54.168Z,5092.00
2019-06-01T08:58:54.270Z,5304.00
2019-06-01T08:59:54.373Z,5472.00
2019-06-01T09:00:54.472Z,5272.00
2019-06-01T09:01:54.575Z,5624.00
2019-06-01T09:02:54.677Z,5916.00
2019-06-01T09:03:54.776Z,5832.00
2019-06-01T09:04:54.876Z,5944.00
2019-06-01T09:05:54.973Z,6060.00
2019-06-01T09:06:55.079Z,6292.00
2019-06-01T09:07:55.178Z,6192.00
2019-06-01T09:08:55.277Z,6372.00
2019-06-01T09:09:55.380Z,6516.00
2019-06-01T09:10:55.479Z,6864.00
2019-06-01T09:11:55.579Z,6840.00
2019-06-01T09:12:55.690Z,6444.00
2019-06-01T09:13:55.793Z,6360.00
2019-06-01T09:14:55.892Z,6384.00
2019-06-01T09:15:55.996Z,6312.00
2019-06-01T09:16:56.112Z,6332.00
2019-06-01T09:17:56.214Z,6300.00
2019-06-01T09:18:56.304Z,6388.00
2019-06-01T09:19:56.406Z,6488.00
2019-06-01T09:20:56.509Z,6720.00
2019-06-01T09:21:56.609Z,6980.00
2019-06-01T09:22:56.710Z,6936.00
2019-06-01T09:23:56.813Z,7104.00
2019-06-01T09:24:57.025Z,6992.00
2019-06-01T09:25:57.017Z,6872.00
2019-06-01T09:26:57.118Z,6516.00
2019-06-01T09:27:57.228Z,6492.00
2019-06-01T09:28:57.325Z,6292.00
2019-06-01T09:29:57.427Z,6252.00
2019-06-01T09:30:57.529Z,5940.00
2019-06-01T09:31:57.631Z,5904.00
2019-06-01T09:32:57.732Z,5392.00
2019-06-01T09:33:57.836Z,6028.00
2019-06-01T09:34:57.937Z,6072.00
2019-06-01T09:35:58.036Z,6348.00
2019-06-01T09:36:58.144Z,5840.00
2019-06-01T09:37:58.246Z,5420.00
2019-06-01T09:38:58.344Z,6164.00
2019-06-01T09:39:58.472Z,6096.00
2019-06-01T09:40:58.558Z,6216.00
2019-06-01T09:41:58.663Z,6268.00
2019-06-01T09:42:58.763Z,6556.00
2019-06-01T09:43:58.869Z,6500.00
2019-06-01T09:44:58.971Z,6676.00
2019-06-01T09:45:59.076Z,6608.00
2019-06-01T09:46:59.184Z,6692.00
2019-06-01T09:47:59.279Z,6768.00
2019-06-01T09:48:59.377Z,6852.00
2019-06-01T09:49:59.484Z,6756.00
2019-06-01T09:50:59.583Z,6936.00
2019-06-01T09:51:59.741Z,7120.00
2019-06-01T09:52:59.793Z,7212.00
2019-06-01T09:53:59.897Z,7204.00
2019-06-01T09:55:00.000Z,7180.00
2019-06-01T09:56:00.101Z,7004.00
2019-06-01T09:57:00.203Z,7032.00
2019-06-01T09:58:00.299Z,7096.00
2019-06-01T09:59:00.410Z,6908.00
2019-06-01T10:00:00.559Z,6592.00
2019-06-01T10:01:00.618Z,6340.00
2019-06-01T10:02:00.725Z,6248.00
2019-06-01T10:03:00.827Z,6200.00
2019-06-01T10:04:00.931Z,6508.00
2019-06-01T10:05:01.039Z,6560.00
2019-06-01T10:06:02.414Z,6736.00
2019-06-01T10:07:01.242Z,7236.00
2019-06-01T10:08:01.344Z,7680.00
2019-06-01T10:09:01.448Z,7828.00
2019-06-01T10:10:01.544Z,8016.00
2019-06-01T10:11:08.819Z,8000.00
2019-06-01T10:12:01.797Z,5916.00
2019-06-01T10:13:01.901Z,7532.00
2019-06-01T10:14:02.002Z,7596.00
2019-06-01T10:15:02.274Z,7520.00
2019-06-01T10:16:02.206Z,6960.00
2019-06-01T10:17:02.316Z,4396.00
2019-06-01T10:18:02.419Z,4664.00
2019-06-01T10:19:02.522Z,7032.00
2019-06-01T10:20:02.622Z,4376.00
2019-06-01T10:21:02.731Z,4180.00
2019-06-01T10:22:02.838Z,4196.00
2019-06-01T10:23:02.934Z,7004.00
2019-06-01T10:24:03.042Z,6768.00
2019-06-01T10:25:03.145Z,4140.00
2019-06-01T10:26:03.351Z,6944.00
2019-06-01T10:27:03.362Z,6792.00
2019-06-01T10:28:03.468Z,6768.00
2019-06-01T10:29:03.560Z,6904.00
2019-06-01T10:30:03.647Z,5944.00
2019-06-01T10:31:03.747Z,7056.00
2019-06-01T10:32:03.861Z,4408.00
2019-06-01T10:33:03.956Z,6840.00
2019-06-01T10:34:04.790Z,7240.00
2019-06-01T10:35:04.156Z,7732.00
2019-06-01T10:36:19.242Z,4696.00
2019-06-01T10:37:04.360Z,5172.00
2019-06-01T10:38:04.469Z,5256.00
2019-06-01T10:39:04.566Z,6608.00
2019-06-01T10:40:04.672Z,6432.00
2019-06-01T10:41:04.774Z,4332.00
2019-06-01T10:42:04.876Z,4336.00
2019-06-01T10:43:04.981Z,3872.00
2019-06-01T10:44:05.084Z,5604.00
2019-06-01T10:45:05.185Z,5660.00
2019-06-01T10:46:05.304Z,6788.00
2019-06-01T10:47:05.400Z,6756.00
2019-06-01T10:48:05.517Z,6832.00
2019-06-01T10:49:05.599Z,6648.00
2019-06-01T10:50:05.699Z,6620.00
2019-06-01T10:51:05.809Z,6728.00
2019-06-01T10:52:05.921Z,6496.00
2019-06-01T10:53:06.005Z,6836.00
2019-06-01T10:54:06.106Z,6892.00
2019-06-01T10:55:06.207Z,6820.00
2019-06-01T10:56:06.312Z,6768.00
2019-06-01T10:57:06.417Z,6924.00
2019-06-01T10:58:06.520Z,6904.00
2019-06-01T10:59:06.626Z,4140.00
2019-06-01T11:00:06.725Z,6936.00
2019-06-01T11:01:06.878Z,6980.00
2019-06-01T11:02:06.927Z,7060.00
2019-06-01T11:03:07.028Z,7112.00
2019-06-01T11:04:07.134Z,7016.00
2019-06-01T11:05:07.267Z,6996.00
2019-06-01T11:06:07.338Z,7052.00
2019-06-01T11:07:07.442Z,6852.00
2019-06-01T11:08:07.544Z,7276.00
2019-06-01T11:09:07.652Z,7600.00
2019-06-01T11:10:07.752Z,7364.00
2019-06-01T11:11:07.858Z,7100.00
2019-06-01T11:12:07.961Z,7328.00
2019-06-01T11:13:08.065Z,7164.00
2019-06-01T11:14:08.183Z,7188.00
2019-06-01T11:15:08.272Z,7284.00
2019-06-01T11:16:08.384Z,6948.00
2019-06-01T11:17:08.478Z,6828.00
2019-06-01T11:18:08.682Z,6592.00
2019-06-01T11:19:08.686Z,6644.00
2019-06-01T11:20:08.836Z,6532.00
2019-06-01T11:21:08.901Z,6436.00
2019-06-01T11:22:09.004Z,6548.00
2019-06-01T11:23:09.107Z,6732.00
2019-06-01T11:24:09.217Z,6880.00
2019-06-01T11:25:09.312Z,6756.00
2019-06-01T11:26:09.414Z,7204.00
2019-06-01T11:27:09.521Z,6996.00
2019-06-01T11:28:09.627Z,7924.00
2019-06-01T11:29:09.726Z,7028.00
2019-06-01T11:30:09.832Z,7112.00
2019-06-01T11:31:09.935Z,7272.00
2019-06-01T11:32:10.031Z,7396.00
2019-06-01T11:33:10.140Z,7536.00
2019-06-01T11:34:10.236Z,7632.00
2019-06-01T11:35:10.341Z,7804.00
2019-06-01T11:36:10.444Z,7912.00
2019-06-01T11:37:15.038Z,8116.00
2019-06-01T11:38:10.655Z,8128.00
2019-06-01T11:39:10.760Z,8176.00
2019-06-01T11:40:10.865Z,8128.00
2019-06-01T11:41:10.969Z,8684.00
2019-06-01T11:42:11.093Z,8256.00
2019-06-01T11:43:11.204Z,8508.00
2019-06-01T11:44:11.298Z,8292.00
2019-06-01T11:45:11.406Z,8332.00
2019-06-01T11:46:11.505Z,8268.00
2019-06-01T11:47:11.737Z,7796.00
2019-06-01T11:48:11.712Z,8004.00
2019-06-01T11:49:11.804Z,7840.00
2019-06-01T11:50:11.907Z,7928.00
2019-06-01T11:51:12.011Z,7824.00
2019-06-01T11:52:12.117Z,7884.00
2019-06-01T11:53:12.222Z,7828.00
2019-06-01T11:54:12.328Z,7608.00
2019-06-01T11:55:12.437Z,7460.00
2019-06-01T11:56:12.546Z,7344.00
2019-06-01T11:57:12.670Z,7424.00
2019-06-01T11:58:12.807Z,7116.00
2019-06-01T11:59:12.847Z,7024.00
2019-06-01T12:00:12.959Z,7244.00
2019-06-01T12:01:13.063Z,7208.00
2019-06-01T12:02:13.169Z,6572.00
2019-06-01T12:03:13.279Z,6412.00
2019-06-01T12:04:13.380Z,6116.00
2019-06-01T12:05:13.485Z,6708.00
2019-06-01T12:06:13.586Z,6824.00
2019-06-01T12:07:18.003Z,6856.00
2019-06-01T12:08:13.791Z,6644.00
2019-06-01T12:09:13.897Z,6456.00
2019-06-01T12:10:13.990Z,7636.00
2019-06-01T12:11:14.084Z,8184.00
2019-06-01T12:12:14.196Z,8324.00
2019-06-01T12:13:14.302Z,8296.00
2019-06-01T12:14:14.425Z,8408.00
2019-06-01T12:15:14.526Z,8640.00
2019-06-01T12:16:14.612Z,8252.00
2019-06-01T12:17:14.715Z,8324.00
2019-06-01T12:18:14.821Z,7776.00
2019-06-01T12:19:14.934Z,8176.00
2019-06-01T12:20:15.038Z,7684.00
2019-06-01T12:21:15.137Z,8380.00
2019-06-01T12:22:15.242Z,7604.00
2019-06-01T12:23:15.341Z,6304.00
2019-06-01T12:24:15.447Z,6684.00
2019-06-01T12:25:15.555Z,7696.00
2019-06-01T12:26:15.658Z,6504.00
2019-06-01T12:27:15.784Z,5752.00